• Join FlightAware (Why Join?)
  • Login
  • US Flag 
05:06PM EST


 

Airport Tracker/Info


-or-


 

Live Flight TrackerFlight Track Log ✈ CPZ5750 ✈ 27-Aug-2014 ✈ KSFO - KSEA

Flight Track Log - Related Links

Times and Time Zones

All times are in EDT time to prevent confusion due to time zone crossing. See the CPZ5750 flight status page for this flight to view local times or setup timezone preferences in your user account.

Time Position Orientation Groundspeed Altitude Reporting Facility
EDT Latitude Longitude Course Direction KTS MPH feet Rate Location/Type
08:07PM 37.6428 -122.3519 12° North 165 190 36,000  Level Oakland Center
08:08PM 37.6667 -122.3167 49° Northeast 203 234 2,100 -8,880 Descending Northern Cal TRACON
08:10PM 37.8022 -122.1972 35° Northeast 281 323 8,500 2,460 Climbing Oakland Center
08:11PM 38.0808 -122.3728 North  Level Estimated
08:11PM 37.8806 -122.1744 13° North 289 333 10,700  Level Oakland Center
08:12PM 38.1940 -122.3435 12° North  Level FlightAware Approximate
08:12PM 37.9711 -122.1469 13° North 334 384 12,000  Level Oakland Center
08:13PM 38.0672 -122.1158 14° North 354 407 14,000 2,100 Climbing Oakland Center
08:14PM 38.1917 -122.1128 North 378 435 16,400 1,860 Climbing Oakland Center
08:15PM 38.2967 -122.1181 358° North 377 434 17,900 1,560 Climbing Oakland Center
08:16PM 38.4067 -122.1247 357° North 393 452 19,600 1,620 Climbing Oakland Center
08:17PM 38.5197 -122.1317 357° North 401 461 21,300 1,560 Climbing Oakland Center
08:19PM 38.6344 -122.1372 358° North 409 471 22,800 1,440 Climbing Oakland Center
08:20PM 38.7583 -122.1467 357° North 417 480 24,300 1,260 Climbing Oakland Center
08:21PM 38.8783 -122.1533 358° North 426 490 25,500 1,020 Climbing Oakland Center
08:22PM 39.0019 -122.1592 358° North 440 506 26,500 1,020 Climbing Oakland Center
08:23PM 39.1272 -122.1678 357° North 447 514 27,700 1,080 Climbing Oakland Center
08:24PM 39.2808 -122.1767 357° North 457 526 28,800 1,080 Climbing Oakland Center
08:25PM 39.4094 -122.1833 358° North 458 527 30,000 1,140 Climbing Oakland Center
08:26PM 39.5314 -122.1900 358° North 458 527 31,200 1,080 Climbing Oakland Center
08:27PM 39.6567 -122.1975 357° North 454 522 32,300 960 Climbing Oakland Center
08:28PM 39.7819 -122.2047 357° North 453 521 33,300 840 Climbing Oakland Center
08:29PM 39.9053 -122.2108 358° North 450 518 34,100 780 Climbing Oakland Center
08:30PM 40.0544 -122.2194 357° North 449 517 35,000 720 Climbing Oakland Center
08:31PM 40.1794 -122.2178 North 467 537 35,700 480 Climbing Oakland Center
08:32PM 40.2975 -122.2358 353° North 454 522 36,000 120 Climbing Oakland Center
08:33PM 40.4239 -122.2431 358° North 455 524 36,000  Level Oakland Center
08:34PM 40.5731 -122.2514 358° North 449 517 36,000  Level Oakland Center
08:35PM 40.6975 -122.2589 357° North 450 518 36,000  Level Oakland Center
08:36PM 40.8222 -122.2664 357° North 449 517 36,000  Level Oakland Center
08:37PM 40.9464 -122.2728 358° North 448 516 36,000  Level Oakland Center
08:38PM 41.0706 -122.2814 357° North 447 514 36,000  Level Oakland Center
08:39PM 41.1950 -122.2942 356° North 448 516 36,000  Level Oakland Center
08:40PM 41.3183 -122.3003 358° North 447 514 36,000  Level Oakland Center
08:41PM 41.4522 -122.3058 358° North 446 513 36,000  Level Oakland Center
08:42PM 41.5764 -122.3139 357° North 446 513 36,000  Level Oakland Center
08:43PM 41.6544 -122.3206 356° North 446 513 36,000  Level Seattle Center
08:44PM 41.7783 -122.3281 357° North 446 513 36,000  Level Seattle Center
08:45PM 41.9036 -122.3350 358° North 446 513 36,000  Level Seattle Center
08:46PM 42.0283 -122.3425 357° North 446 513 36,000  Level Seattle Center
08:47PM 42.1542 -122.3517 357° North 446 513 36,000  Level Seattle Center
08:48PM 42.2792 -122.3575 358° North 446 513 36,000  Level Seattle Center
08:49PM 42.4039 -122.3650 357° North 446 513 36,000  Level Seattle Center
08:50PM 42.5289 -122.3733 357° North 446 513 36,000  Level Seattle Center
08:51PM 42.6781 -122.3828 357° North 448 516 36,000  Level Seattle Center
08:52PM 42.8044 -122.3903 358° North 452 520 36,000  Level Seattle Center
08:53PM 42.9286 -122.4000 357° North 450 518 36,000  Level Seattle Center
08:54PM 43.0533 -122.4072 358° North 451 519 36,000  Level Seattle Center
08:55PM 43.1778 -122.4156 357° North 451 519 36,000  Level Seattle Center
08:56PM 43.3039 -122.4214 358° North 453 521 36,000  Level Seattle Center
08:57PM 43.4286 -122.4297 357° North 453 521 36,000  Level Seattle Center
08:58PM 43.5539 -122.4372 358° North 453 521 36,000  Level Seattle Center
08:59PM 43.6781 -122.4475 357° North 452 520 36,000  Level Seattle Center
09:00PM 43.8025 -122.4556 357° North 452 520 36,000  Level Seattle Center
09:01PM 43.9517 -122.4661 357° North 450 518 36,000  Level Seattle Center
09:02PM 44.0756 -122.4742 357° North 450 518 36,000  Level Seattle Center
09:03PM 44.1997 -122.4831 357° North 451 519 36,000  Level Seattle Center
09:04PM 44.3231 -122.4908 357° North 448 516 36,000  Level Seattle Center
09:05PM 44.4475 -122.4983 358° North 449 517 36,000  Level Seattle Center
09:06PM 44.5717 -122.5072 357° North 449 517 36,000  Level Seattle Center
09:07PM 44.6969 -122.5156 357° North 449 517 36,000  Level Seattle Center
09:08PM 44.8222 -122.5253 357° North 451 519 36,000  Level Seattle Center
09:09PM 44.9653 -122.5342 357° North 447 514 36,000  Level Seattle Center
09:10PM 45.0903 -122.5433 357° North 448 516 36,000  Level Seattle Center
09:11PM 45.2167 -122.5519 357° North 454 522 36,000  Level Seattle Center
09:12PM 45.3411 -122.5614 357° North 454 522 36,000  Level Seattle Center
09:13PM 45.4664 -122.5719 357° North 454 522 36,000  Level Seattle Center
09:14PM 45.5894 -122.5803 357° North 453 521 36,000  Level Seattle Center
09:15PM 45.7128 -122.5878 358° North 450 518 36,000  Level Seattle Center
09:16PM 45.8336 -122.6128 352° North 443 510 36,000 -720 Level Seattle Center
09:17PM 45.9536 -122.6408 351° North 441 507 34,600 -2,100 Descending Seattle Center
09:18PM 46.0975 -122.6758 350° North 441 507 31,800 -2,520 Descending Seattle Center
09:19PM 46.2211 -122.7006 352° North 442 509 29,500 -2,340 Descending Seattle Center
09:20PM 46.3425 -122.7217 353° North 442 509 27,100 -2,280 Descending Seattle Center
09:21PM 46.4600 -122.7281 358° North 430 495 24,900 -2,220 Descending Seattle Center
09:22PM 46.5739 -122.7322 359° North 415 478 22,700 -2,160 Descending Seattle Center
09:24PM 46.6836 -122.7350 359° North 400 460 20,600 -2,220 Descending Seattle Center
09:24PM 46.7544 -122.7353 360° North 381 438 19,100 -1,980 Descending Seattle Center
09:25PM 46.7883 -122.7267 10° North 384 442 18,600 -1,860 Descending Seattle Center
09:25PM 46.8336 -122.6800 35° Northeast 381 438 17,600 -2,280 Descending Seattle Center
09:26PM 46.8850 -122.6189 39° Northeast 390 449 16,300 -2,100 Descending Seattle Center
09:26PM 46.9167 -122.5867 35° Northeast 376 433 15,500 -1,800 Descending Seattle Center
09:27PM 46.9703 -122.5444 28° Northeast 365 420 14,500 -1,620 Descending Seattle Center
09:27PM 47.0050 -122.5325 13° North 348 400 13,900 -1,500 Descending Seattle Center
09:28PM 47.0619 -122.5064 17° North 347 399 13,000 -1,500 Descending Seattle Center
09:28PM 47.1042 -122.4947 11° North 333 383 12,400 -1,320 Descending Seattle Center
09:29PM 47.1503 -122.4861 North 320 368 11,700 -1,320 Descending Seattle Center
09:29PM 47.1894 -122.4808 North 302 348 11,100 -1,320 Descending Seattle Center
09:30PM 47.2397 -122.4711 North 295 339 10,400 -1,020 Descending Seattle Center
09:30PM 47.2683 -122.4672 North 287 330 10,100 -900 Descending Seattle Center
09:31PM 47.3139 -122.4606 North 272 313 9,500 -900 Descending Seattle Center
09:31PM 47.3392 -122.4581 North 251 289 9,200 -1,020 Descending Seattle Center
09:32PM 47.3825 -122.4550 North 250 288 8,500 -1,320 Descending Seattle Center
09:32PM 47.4122 -122.4572 357° North 244 281 7,900 -1,380 Descending Seattle Center
09:33PM 47.4506 -122.4550 North 249 287 7,100 -1,500 Descending Seattle Center
09:33PM 47.4881 -122.4583 357° North 248 285 6,300 -1,140 Descending Seattle Center
09:34PM 47.5192 -122.4547 North 248 285 6,000 -360 Descending Seattle Center
09:34PM 47.5500 -122.4569 357° North 244 281 6,000  Level Seattle Center
09:35PM 47.5847 -122.4522 North 240 276 6,000  Level Seattle Center
09:35PM 47.6178 -122.4525 360° North 238 274 6,000  Level Seattle Center
09:36PM 47.6511 -122.4442 10° North 242 278 6,000 -600 Level Seattle Center
09:36PM 47.6642 -122.4072 62° Northeast 233 268 5,400 -1,620 Descending Seattle Center
09:37PM 47.6408 -122.3617 127° Southeast 227 261 4,400 -1,380 Descending Seattle Center
09:37PM 47.6231 -122.3414 142° Southeast 213 245 4,000 -600 Descending Seattle Center
09:38PM 47.5958 -122.3181 150° Southeast 197 227 3,800 -900 Descending Seattle Center
09:38PM 47.5769 -122.3175 179° South 181 208 3,100 -1,800 Descending Seattle Center
09:39PM 47.5450 -122.3181 181° South 190 219 2,000 -1,500 Descending Seattle Center
09:39PM 47.5264 -122.3192 182° South 183 211 1,600 -840 Descending Seattle Center
09:40PM 47.4989 -122.3172 177° South 168 193 1,200 -780 Descending Seattle Center
09:41PM 47.4569 -122.3186 181° South 144 166 400 -420 Descending Seattle Center
09:42PM 47.4275 -122.3194 181° South 134 154 400  Level Seattle Center